createdAt,value
2019-01-26T00:02:07.102Z,19.27
2019-01-26T00:04:37.907Z,17.92
2019-01-26T00:07:08.679Z,19.53
2019-01-26T00:09:39.452Z,19.53
2019-01-26T00:12:10.326Z,20.97
2019-01-26T00:14:41.107Z,22.20
2019-01-26T00:17:11.872Z,19.80
2019-01-26T00:19:42.670Z,23.00
2019-01-26T00:22:13.432Z,21.93
2019-01-26T00:24:44.264Z,16.40
2019-01-26T00:27:15.093Z,12.30
2019-01-26T00:29:45.874Z,9.73
2019-01-26T00:32:16.631Z,8.90
2019-01-26T00:34:47.406Z,11.40
2019-01-26T00:37:18.223Z,10.50
2019-01-26T00:39:49.000Z,9.13
2019-01-26T00:42:19.766Z,10.10
2019-01-26T00:44:50.534Z,9.63
2019-01-26T00:47:21.321Z,8.00
2019-01-26T00:49:52.104Z,10.93
2019-01-26T00:52:22.875Z,11.73
2019-01-26T00:54:53.661Z,10.17
2019-01-26T00:57:24.517Z,9.30
2019-01-26T00:59:55.291Z,10.33
2019-01-26T01:02:26.050Z,9.93
2019-01-26T01:04:57.972Z,9.13
2019-01-26T01:07:30.763Z,11.18
2019-01-26T01:10:03.869Z,8.88
2019-01-26T01:12:34.651Z,10.88
2019-01-26T01:15:09.124Z,10.73
2019-01-26T01:17:39.911Z,10.08
2019-01-26T01:20:10.786Z,9.50
2019-01-26T01:22:41.566Z,9.67
2019-01-26T01:25:12.745Z,8.57
2019-01-26T01:27:43.505Z,9.63
2019-01-26T01:30:20.587Z,10.30
2019-01-26T01:32:51.346Z,10.90
2019-01-26T01:35:22.115Z,11.40
2019-01-26T01:37:53.147Z,9.57
2019-01-26T01:40:23.930Z,9.13
2019-01-26T01:42:54.702Z,8.67
2019-01-26T01:45:25.475Z,10.77
2019-01-26T01:47:56.259Z,10.90
2019-01-26T01:50:27.207Z,10.30
2019-01-26T01:52:57.970Z,8.70
2019-01-26T01:55:28.757Z,10.17
2019-01-26T01:57:59.513Z,10.50
2019-01-26T02:00:30.278Z,11.03
2019-01-26T02:03:01.041Z,9.80
2019-01-26T02:05:31.812Z,11.40
2019-01-26T02:08:02.976Z,10.83
2019-01-26T02:10:33.780Z,11.53
2019-01-26T02:13:04.548Z,10.97
2019-01-26T02:15:35.308Z,11.40
2019-01-26T02:18:06.072Z,11.40
2019-01-26T02:20:37.211Z,10.23
2019-01-26T02:23:07.980Z,11.63
2019-01-26T02:25:39.094Z,10.43
2019-01-26T02:28:09.865Z,10.75
2019-01-26T02:30:40.657Z,10.30
2019-01-26T02:33:11.438Z,11.50
2019-01-26T02:35:42.227Z,11.17
2019-01-26T02:38:13.006Z,11.37
2019-01-26T02:40:43.863Z,12.73
2019-01-26T02:43:14.635Z,13.00
2019-01-26T02:45:45.411Z,12.90
2019-01-26T02:48:16.205Z,13.47
2019-01-26T02:50:47.000Z,13.63
2019-01-26T02:53:17.769Z,9.87
2019-01-26T02:55:48.574Z,12.47
2019-01-26T02:58:19.305Z,11.80
2019-01-26T03:00:50.090Z,13.50
2019-01-26T03:03:20.852Z,14.87
2019-01-26T03:05:51.708Z,13.33
2019-01-26T03:08:22.481Z,14.40
2019-01-26T03:10:53.242Z,13.27
2019-01-26T03:13:24.038Z,15.47
2019-01-26T03:15:54.805Z,15.23
2019-01-26T03:18:25.584Z,14.40
2019-01-26T03:20:56.352Z,14.03
2019-01-26T03:23:27.136Z,14.87
2019-01-26T03:25:57.895Z,17.03
2019-01-26T03:28:28.656Z,14.43
2019-01-26T03:30:59.426Z,14.90
2019-01-26T03:33:30.199Z,16.10
2019-01-26T03:36:00.962Z,14.53
2019-01-26T03:38:31.831Z,14.93
2019-01-26T03:41:02.702Z,16.57
2019-01-26T03:43:33.469Z,18.80
2019-01-26T03:46:04.252Z,15.03
2019-01-26T03:48:35.034Z,15.90
2019-01-26T03:51:05.791Z,18.37
2019-01-26T03:53:36.575Z,14.97
2019-01-26T03:56:07.342Z,18.17
2019-01-26T03:58:38.112Z,16.07
2019-01-26T04:01:08.889Z,18.23
2019-01-26T04:03:39.663Z,15.87
2019-01-26T04:06:10.431Z,16.43
2019-01-26T04:08:41.208Z,16.20
2019-01-26T04:11:11.966Z,17.57
2019-01-26T04:13:42.754Z,16.87
2019-01-26T04:16:13.599Z,15.37
2019-01-26T04:18:44.473Z,16.20
2019-01-26T04:21:15.239Z,17.00
2019-01-26T04:23:46.028Z,14.50
2019-01-26T04:26:16.769Z,17.10
2019-01-26T04:28:47.543Z,15.00
2019-01-26T04:31:18.298Z,16.30
2019-01-26T04:33:49.073Z,15.27
2019-01-26T04:36:19.835Z,14.70
2019-01-26T04:38:50.617Z,14.17
2019-01-26T04:41:21.377Z,14.53
2019-01-26T04:43:52.214Z,14.50
2019-01-26T04:46:22.982Z,14.77
2019-01-26T04:48:53.767Z,14.23
2019-01-26T04:51:24.589Z,16.50
2019-01-26T04:53:55.377Z,13.70
2019-01-26T04:56:26.152Z,14.20
2019-01-26T04:58:56.934Z,14.80
2019-01-26T05:01:27.703Z,12.93
2019-01-26T05:03:58.496Z,11.77
2019-01-26T05:06:29.326Z,13.40
2019-01-26T05:09:00.087Z,14.50
2019-01-26T05:11:30.850Z,14.70
2019-01-26T05:14:01.623Z,12.60
2019-01-26T05:16:32.465Z,13.83
2019-01-26T05:19:03.277Z,13.57
2019-01-26T05:21:34.058Z,13.50
2019-01-26T05:24:05.919Z,14.20
2019-01-26T05:26:36.834Z,13.05
2019-01-26T05:29:07.675Z,12.50
2019-01-26T05:31:38.567Z,12.07
2019-01-26T05:34:09.460Z,13.63
2019-01-26T05:36:40.342Z,12.77
2019-01-26T05:39:11.078Z,12.60
2019-01-26T05:41:41.937Z,13.00
2019-01-26T05:44:12.715Z,13.57
2019-01-26T05:46:43.495Z,12.80
2019-01-26T05:49:14.264Z,14.50
2019-01-26T05:51:45.031Z,12.80
2019-01-26T05:54:15.822Z,12.43
2019-01-26T05:56:46.758Z,10.87
2019-01-26T05:59:17.579Z,14.07
2019-01-26T06:01:48.353Z,12.90
2019-01-26T06:04:19.146Z,11.40
2019-01-26T06:06:49.903Z,12.10
2019-01-26T06:09:20.670Z,11.80
2019-01-26T06:11:51.476Z,11.80
2019-01-26T06:14:22.271Z,11.93
2019-01-26T06:16:53.076Z,12.43
2019-01-26T06:19:23.786Z,12.03
2019-01-26T06:21:54.559Z,10.90
2019-01-26T06:24:25.320Z,11.80
2019-01-26T06:26:56.091Z,12.20
2019-01-26T06:29:26.907Z,11.30
2019-01-26T06:31:57.783Z,11.30
2019-01-26T06:34:28.554Z,12.10
2019-01-26T06:36:59.325Z,12.00
2019-01-26T06:39:30.122Z,10.43
2019-01-26T06:42:00.898Z,10.23
2019-01-26T06:44:31.714Z,9.40
2019-01-26T06:47:02.698Z,11.30
2019-01-26T06:49:33.464Z,10.43
2019-01-26T06:52:04.234Z,11.23
2019-01-26T06:54:35.000Z,9.60
2019-01-26T06:57:05.768Z,9.13
2019-01-26T06:59:36.626Z,9.93
2019-01-26T07:02:07.411Z,10.87
2019-01-26T07:04:40.075Z,8.63
2019-01-26T07:07:12.248Z,9.93
2019-01-26T07:09:43.017Z,9.13
2019-01-26T07:12:13.792Z,8.60
2019-01-26T07:14:44.559Z,9.00
2019-01-26T07:17:15.336Z,10.87
2019-01-26T07:19:46.100Z,10.17
2019-01-26T07:22:16.862Z,9.03
2019-01-26T07:24:47.635Z,10.30
2019-01-26T07:27:18.406Z,8.53
2019-01-26T07:29:49.166Z,9.10
2019-01-26T07:32:19.929Z,10.47
2019-01-26T07:34:50.715Z,8.00
2019-01-26T07:37:21.486Z,8.90
2019-01-26T07:39:52.249Z,9.50
2019-01-26T07:42:23.017Z,9.97
2019-01-26T07:44:53.780Z,10.90
2019-01-26T07:47:24.568Z,9.87
2019-01-26T07:49:55.413Z,10.80
2019-01-26T07:52:26.310Z,9.17
2019-01-26T07:54:57.137Z,9.80
2019-01-26T07:57:27.972Z,11.20
2019-01-26T07:59:58.732Z,9.70
2019-01-26T08:02:29.601Z,9.20
2019-01-26T08:05:00.384Z,9.37
2019-01-26T08:07:31.136Z,9.60
2019-01-26T08:10:04.405Z,9.80
2019-01-26T08:12:35.195Z,9.75
2019-01-26T08:15:09.775Z,9.87
2019-01-26T08:17:40.546Z,8.80
2019-01-26T08:20:17.422Z,10.03
2019-01-26T08:22:48.196Z,8.80
2019-01-26T08:25:20.116Z,8.60
2019-01-26T08:27:50.890Z,9.68
2019-01-26T08:30:22.752Z,8.63
2019-01-26T08:32:53.534Z,10.38
2019-01-26T08:35:24.326Z,7.83
2019-01-26T08:37:55.198Z,7.97
2019-01-26T08:40:26.062Z,7.60
2019-01-26T08:42:57.014Z,8.40
2019-01-26T08:45:27.971Z,8.90
2019-01-26T08:47:58.843Z,8.70
2019-01-26T08:50:29.714Z,9.27
2019-01-26T08:53:00.621Z,8.10
2019-01-26T08:55:31.402Z,7.87
2019-01-26T08:58:02.283Z,8.37
2019-01-26T09:00:33.062Z,8.70
2019-01-26T09:03:05.750Z,7.70
2019-01-26T09:05:56.622Z,8.48
2019-01-26T09:08:27.564Z,8.15
2019-01-26T09:10:58.426Z,6.97
2019-01-26T09:13:29.284Z,8.77
2019-01-26T09:16:00.098Z,8.90
2019-01-26T09:18:30.978Z,8.20
2019-01-26T09:21:01.950Z,9.53
2019-01-26T09:23:32.855Z,8.07
2019-01-26T09:26:03.856Z,9.60
2019-01-26T09:28:35.118Z,8.78
2019-01-26T09:31:06.102Z,8.25
2019-01-26T09:33:37.180Z,7.05
2019-01-26T09:36:08.167Z,8.08
2019-01-26T09:38:39.129Z,8.88
2019-01-26T09:41:10.147Z,8.43
2019-01-26T09:43:41.090Z,9.30
2019-01-26T09:46:12.251Z,7.43
2019-01-26T09:48:46.342Z,8.80
2019-01-26T09:51:15.816Z,8.08
2019-01-26T09:53:46.719Z,7.70
2019-01-26T09:56:17.548Z,9.27
2019-01-26T09:58:48.454Z,8.50
2019-01-26T10:01:19.404Z,9.10
2019-01-26T10:03:50.216Z,7.83
2019-01-26T10:06:21.136Z,8.10
2019-01-26T10:08:52.059Z,9.20
2019-01-26T10:11:22.974Z,8.90
2019-01-26T10:13:53.892Z,8.80
2019-01-26T10:16:24.796Z,9.57
2019-01-26T10:18:55.597Z,9.03
2019-01-26T10:21:26.509Z,7.30
2019-01-26T10:23:57.816Z,8.97
2019-01-26T10:26:28.803Z,7.87
2019-01-26T10:29:00.130Z,8.60
2019-01-26T10:31:31.093Z,8.03
2019-01-26T10:34:01.999Z,8.20
2019-01-26T10:36:34.795Z,9.23
2019-01-26T10:39:07.390Z,10.30
2019-01-26T10:41:40.254Z,8.88
2019-01-26T10:44:13.020Z,9.85
2019-01-26T10:46:44.159Z,8.75
2019-01-26T10:49:15.270Z,9.48
2019-01-26T10:51:46.289Z,8.85
2019-01-26T10:54:17.335Z,10.10
2019-01-26T10:56:48.439Z,8.75
2019-01-26T10:59:19.429Z,8.18
2019-01-26T11:01:50.590Z,9.00
2019-01-26T11:04:21.728Z,9.25
2019-01-26T11:06:53.161Z,8.70
2019-01-26T11:09:24.460Z,9.68
2019-01-26T11:11:55.510Z,8.40
2019-01-26T11:14:26.581Z,8.75
2019-01-26T11:16:57.509Z,9.05
2019-01-26T11:19:28.609Z,8.13
2019-01-26T11:21:59.751Z,9.45
2019-01-26T11:24:30.697Z,10.30
2019-01-26T11:27:01.855Z,11.43
2019-01-26T11:29:32.677Z,8.75
2019-01-26T11:32:04.044Z,8.07
2019-01-26T11:34:35.266Z,10.65
2019-01-26T11:37:06.411Z,9.35
2019-01-26T11:39:39.401Z,9.15
2019-01-26T11:42:10.465Z,9.05
2019-01-26T11:44:43.255Z,10.10
2019-01-26T11:47:14.480Z,9.95
2019-01-26T11:49:47.265Z,10.45
2019-01-26T11:52:18.393Z,9.65
2019-01-26T11:54:51.142Z,9.20
2019-01-26T11:57:22.453Z,10.65
2019-01-26T12:00:11.808Z,8.48
2019-01-26T12:02:44.603Z,11.35
2019-01-26T12:05:17.411Z,11.25
2019-01-26T12:07:48.741Z,10.00
2019-01-26T12:10:20.088Z,11.03
2019-01-26T12:12:51.301Z,10.58
2019-01-26T12:15:22.967Z,10.78
2019-01-26T12:17:54.236Z,12.00
2019-01-26T12:20:25.770Z,11.35
2019-01-26T12:22:56.938Z,11.93
2019-01-26T12:25:28.377Z,10.88
2019-01-26T12:27:59.833Z,12.05
2019-01-26T12:30:31.498Z,10.60
2019-01-26T12:33:02.890Z,10.65
2019-01-26T12:35:33.953Z,12.20
2019-01-26T12:38:05.332Z,10.88
2019-01-26T12:40:36.780Z,10.88
2019-01-26T12:43:08.553Z,10.75
2019-01-26T12:45:39.799Z,11.03
2019-01-26T12:48:11.222Z,10.32
2019-01-26T12:50:42.675Z,11.05
2019-01-26T12:53:13.796Z,11.83
2019-01-26T12:55:44.967Z,11.53
2019-01-26T12:58:16.228Z,11.40
2019-01-26T13:00:47.329Z,11.90
2019-01-26T13:03:18.821Z,10.25
2019-01-26T13:05:50.258Z,10.08
2019-01-26T13:08:21.822Z,10.95
2019-01-26T13:11:05.931Z,10.48
2019-01-26T13:13:37.183Z,9.70
2019-01-26T13:16:08.549Z,8.98
2019-01-26T13:18:40.102Z,10.25
2019-01-26T13:21:11.452Z,11.33
2019-01-26T13:23:43.130Z,9.25
2019-01-26T13:26:14.564Z,9.75
2019-01-26T13:28:46.131Z,10.23
2019-01-26T13:31:17.559Z,9.38
2019-01-26T13:33:48.917Z,9.50
2019-01-26T13:36:20.635Z,9.15
2019-01-26T13:38:52.124Z,8.93
2019-01-26T13:41:23.668Z,9.00
2019-01-26T13:43:55.644Z,7.70
2019-01-26T13:46:27.397Z,9.75
2019-01-26T13:48:58.970Z,9.25
2019-01-26T13:51:31.528Z,8.70
2019-01-26T13:54:04.193Z,9.50
2019-01-26T13:56:35.757Z,10.30
2019-01-26T13:59:06.923Z,8.93
2019-01-26T14:01:38.463Z,9.38
2019-01-26T14:04:09.884Z,9.23
2019-01-26T14:06:41.094Z,8.63
2019-01-26T14:09:12.196Z,9.93
2019-01-26T14:11:43.435Z,9.10
2019-01-26T14:14:14.559Z,9.50
2019-01-26T14:16:45.641Z,8.98
2019-01-26T14:19:16.997Z,9.70
2019-01-26T14:21:48.427Z,10.10
2019-01-26T14:24:19.806Z,9.30
2019-01-26T14:26:51.142Z,9.75
2019-01-26T14:29:22.467Z,9.50
2019-01-26T14:31:53.818Z,10.53
2019-01-26T14:34:25.441Z,9.95
2019-01-26T14:36:57.017Z,9.88
2019-01-26T14:39:28.607Z,9.78
2019-01-26T14:41:59.697Z,9.05
2019-01-26T14:44:30.941Z,10.35
2019-01-26T14:47:02.139Z,9.70
2019-01-26T14:49:33.492Z,10.15
2019-01-26T14:52:04.908Z,12.88
2019-01-26T14:54:36.068Z,9.23
2019-01-26T14:57:07.406Z,10.90
2019-01-26T14:59:38.500Z,10.45
2019-01-26T15:02:09.614Z,9.75
2019-01-26T15:04:40.695Z,8.53
2019-01-26T15:07:11.974Z,8.80
2019-01-26T15:09:43.091Z,9.10
2019-01-26T15:12:14.472Z,9.18
2019-01-26T15:14:46.182Z,8.48
2019-01-26T15:17:17.496Z,9.03
2019-01-26T15:19:49.055Z,8.43
2019-01-26T15:22:20.469Z,9.05
2019-01-26T15:24:51.750Z,7.97
2019-01-26T15:27:23.078Z,9.15
2019-01-26T15:29:54.781Z,8.53
2019-01-26T15:32:26.198Z,8.20
2019-01-26T15:34:57.762Z,8.33
2019-01-26T15:37:29.081Z,8.80
2019-01-26T15:40:00.656Z,8.40
2019-01-26T15:42:32.180Z,8.73
2019-01-26T15:45:12.584Z,8.48
2019-01-26T15:47:43.927Z,8.00
2019-01-26T15:50:15.349Z,8.65
2019-01-26T15:52:46.595Z,8.75
2019-01-26T15:55:20.730Z,8.13
2019-01-26T15:57:52.555Z,8.63
2019-01-26T16:00:27.924Z,7.75
2019-01-26T16:02:59.562Z,7.70
2019-01-26T16:05:31.012Z,7.83
2019-01-26T16:08:02.519Z,7.47
2019-01-26T16:10:33.660Z,8.50
2019-01-26T16:13:04.803Z,7.35
2019-01-26T16:15:37.788Z,9.60
2019-01-26T16:18:11.115Z,10.25
2019-01-26T16:20:42.699Z,9.20
2019-01-26T16:23:14.445Z,8.53
2019-01-26T16:25:45.956Z,7.22
2019-01-26T16:28:17.556Z,7.05
2019-01-26T16:30:49.333Z,6.25
2019-01-26T16:33:21.079Z,7.05
2019-01-26T16:35:52.933Z,6.70
2019-01-26T16:38:24.289Z,9.03
2019-01-26T16:40:55.998Z,7.50
2019-01-26T16:43:27.479Z,6.80
2019-01-26T16:45:58.888Z,7.33
2019-01-26T16:48:30.302Z,7.17
2019-01-26T16:51:02.072Z,6.72
2019-01-26T16:53:33.721Z,6.80
2019-01-26T16:56:05.383Z,5.80
2019-01-26T16:58:36.594Z,6.95
2019-01-26T17:01:08.160Z,6.80
2019-01-26T17:03:39.503Z,6.80
2019-01-26T17:06:11.176Z,6.05
2019-01-26T17:08:42.691Z,7.00
2019-01-26T17:11:14.392Z,7.47
2019-01-26T17:13:45.914Z,6.53
2019-01-26T17:16:17.461Z,6.55
2019-01-26T17:18:48.822Z,7.05
2019-01-26T17:21:20.412Z,6.20
2019-01-26T17:23:51.836Z,5.65
2019-01-26T17:26:23.318Z,6.67
2019-01-26T17:28:54.829Z,8.50
2019-01-26T17:31:26.143Z,7.85
2019-01-26T17:33:57.421Z,7.83
2019-01-26T17:36:28.566Z,8.98
2019-01-26T17:38:59.921Z,8.05
2019-01-26T17:41:31.294Z,6.50
2019-01-26T17:44:02.527Z,6.67
2019-01-26T17:46:33.911Z,5.95
2019-01-26T17:49:05.311Z,7.10
2019-01-26T17:51:37.070Z,6.80
2019-01-26T17:54:08.827Z,7.70
2019-01-26T17:56:40.437Z,7.65
2019-01-26T17:59:11.835Z,6.10
2019-01-26T18:01:43.191Z,6.70
2019-01-26T18:04:14.514Z,7.60
2019-01-26T18:06:45.760Z,6.33
2019-01-26T18:09:17.415Z,5.97
2019-01-26T18:11:49.215Z,6.78
2019-01-26T18:14:20.662Z,6.55
2019-01-26T18:16:52.124Z,6.12
2019-01-26T18:19:23.661Z,5.35
2019-01-26T18:21:55.638Z,6.40
2019-01-26T18:24:27.361Z,6.90
2019-01-26T18:26:59.043Z,5.35
2019-01-26T18:29:30.727Z,6.12
2019-01-26T18:32:02.439Z,7.85
2019-01-26T18:34:34.079Z,9.30
2019-01-26T18:37:05.788Z,7.17
2019-01-26T18:39:37.292Z,7.37
2019-01-26T18:42:08.818Z,7.10
2019-01-26T18:44:40.501Z,7.47
2019-01-26T18:47:12.527Z,6.50
2019-01-26T18:49:44.170Z,7.40
2019-01-26T18:52:15.950Z,8.40
2019-01-26T18:54:47.632Z,7.35
2019-01-26T18:57:19.663Z,7.83
2019-01-26T18:59:51.451Z,7.37
2019-01-26T19:02:23.487Z,6.50
2019-01-26T19:04:56.304Z,8.48
2019-01-26T19:07:28.056Z,6.97
2019-01-26T19:10:00.022Z,7.05
2019-01-26T19:12:32.071Z,6.58
2019-01-26T19:15:07.324Z,7.15
2019-01-26T19:17:39.215Z,6.97
2019-01-26T19:20:13.515Z,7.20
2019-01-26T19:22:45.495Z,8.33
2019-01-26T19:25:19.368Z,7.80
2019-01-26T19:27:51.757Z,6.90
2019-01-26T19:30:24.062Z,8.35
2019-01-26T19:32:55.894Z,7.40
2019-01-26T19:35:27.842Z,7.33
2019-01-26T19:37:59.822Z,6.95
2019-01-26T19:40:31.965Z,8.60
2019-01-26T19:43:04.047Z,7.62
2019-01-26T19:45:35.722Z,7.87
2019-01-26T19:48:07.659Z,8.75
2019-01-26T19:50:39.512Z,7.55
2019-01-26T19:53:11.590Z,8.43
2019-01-26T19:55:44.476Z,8.35
2019-01-26T19:58:16.365Z,7.25
2019-01-26T20:00:48.400Z,8.10
2019-01-26T20:03:20.411Z,9.00
2019-01-26T20:05:52.429Z,8.05
2019-01-26T20:08:24.344Z,7.55
2019-01-26T20:10:56.248Z,8.20
2019-01-26T20:13:28.124Z,7.25
2019-01-26T20:15:59.974Z,8.73
2019-01-26T20:18:31.787Z,7.42
2019-01-26T20:21:04.201Z,8.15
2019-01-26T20:23:35.862Z,8.88
2019-01-26T20:26:07.512Z,7.97
2019-01-26T20:28:39.405Z,8.35
2019-01-26T20:31:11.333Z,7.92
2019-01-26T20:33:43.114Z,7.60
2019-01-26T20:36:15.065Z,7.78
2019-01-26T20:38:47.280Z,8.90
2019-01-26T20:41:19.187Z,8.10
2019-01-26T20:43:51.467Z,7.87
2019-01-26T20:46:23.206Z,7.85
2019-01-26T20:48:55.086Z,9.05
2019-01-26T20:51:26.873Z,7.70
2019-01-26T20:53:58.684Z,7.85
2019-01-26T20:56:30.549Z,8.58
2019-01-26T20:59:02.428Z,8.58
2019-01-26T21:01:34.381Z,9.20
2019-01-26T21:04:06.269Z,8.70
2019-01-26T21:06:37.901Z,9.08
2019-01-26T21:09:10.002Z,8.48
2019-01-26T21:11:41.820Z,8.90
2019-01-26T21:14:13.742Z,8.65
2019-01-26T21:16:45.637Z,9.35
2019-01-26T21:19:17.531Z,8.45
2019-01-26T21:21:49.366Z,9.15
2019-01-26T21:24:21.048Z,9.28
2019-01-26T21:26:52.690Z,8.75
2019-01-26T21:29:24.787Z,7.80
2019-01-26T21:31:56.500Z,8.78
2019-01-26T21:34:28.223Z,8.63
2019-01-26T21:36:59.865Z,9.28
2019-01-26T21:39:31.503Z,9.35
2019-01-26T21:42:03.236Z,8.48
2019-01-26T21:44:34.911Z,8.60
2019-01-26T21:47:06.548Z,9.18
2019-01-26T21:49:38.221Z,9.48
2019-01-26T21:52:09.873Z,9.33
2019-01-26T21:54:41.568Z,8.33
2019-01-26T21:57:13.165Z,8.55
2019-01-26T21:59:44.940Z,9.25
2019-01-26T22:02:16.418Z,9.38
2019-01-26T22:04:47.790Z,9.10
2019-01-26T22:07:19.463Z,8.55
2019-01-26T22:09:50.633Z,9.68
2019-01-26T22:12:22.188Z,7.95
2019-01-26T22:14:53.644Z,8.30
2019-01-26T22:17:24.940Z,8.00
2019-01-26T22:19:56.455Z,8.60
2019-01-26T22:22:27.872Z,8.75
2019-01-26T22:24:58.984Z,8.23
2019-01-26T22:27:30.428Z,8.55
2019-01-26T22:30:03.885Z,8.75
2019-01-26T22:32:35.218Z,7.65
2019-01-26T22:35:06.680Z,7.97
2019-01-26T22:37:37.775Z,7.70
2019-01-26T22:40:13.009Z,7.87
2019-01-26T22:42:44.336Z,8.03
2019-01-26T22:45:15.532Z,7.00
2019-01-26T22:47:46.597Z,7.22
2019-01-26T22:50:20.276Z,6.75
2019-01-26T22:52:51.442Z,7.20
2019-01-26T22:55:22.340Z,7.03
2019-01-26T22:57:53.810Z,8.00
2019-01-26T23:00:42.138Z,6.53
2019-01-26T23:03:13.762Z,6.70
2019-01-26T23:06:14.099Z,7.62
2019-01-26T23:08:46.311Z,6.42
2019-01-26T23:11:39.132Z,5.70
2019-01-26T23:14:16.500Z,7.53
2019-01-26T23:16:54.146Z,7.87
2019-01-26T23:19:31.745Z,6.30
2019-01-26T23:22:27.607Z,7.03
2019-01-26T23:25:07.943Z,6.25
2019-01-26T23:27:57.944Z,6.80
2019-01-26T23:31:06.551Z,6.00
2019-01-26T23:33:37.431Z,7.05
2019-01-26T23:36:08.287Z,5.77
2019-01-26T23:38:39.059Z,6.30
2019-01-26T23:41:09.875Z,6.20
2019-01-26T23:43:40.653Z,5.43
2019-01-26T23:46:11.414Z,6.40
2019-01-26T23:48:42.214Z,6.50
2019-01-26T23:51:13.084Z,6.07
2019-01-26T23:53:43.877Z,6.17
2019-01-26T23:56:14.639Z,5.67
2019-01-26T23:58:45.410Z,5.67
